sensor_id;sensor_type;location;lat;lon;timestamp;pressure;altitude;pressure_sealevel;temperature;humidity
55466;BME280;41329;41.594;23.810;2023-07-16T00:01:51;95492.47;;;27.69;57.66
55466;BME280;41329;41.594;23.810;2023-07-16T00:04:17;95490.41;;;27.70;57.11
55466;BME280;41329;41.594;23.810;2023-07-16T00:06:42;95485.22;;;27.59;57.48
55466;BME280;41329;41.594;23.810;2023-07-16T00:09:07;95475.47;;;27.51;57.63
55466;BME280;41329;41.594;23.810;2023-07-16T00:11:33;95482.75;;;27.43;57.60
55466;BME280;41329;41.594;23.810;2023-07-16T00:13:58;95477.88;;;27.35;57.93
55466;BME280;41329;41.594;23.810;2023-07-16T00:16:24;95480.41;;;27.33;58.52
55466;BME280;41329;41.594;23.810;2023-07-16T00:18:49;95478.34;;;27.33;59.00
55466;BME280;41329;41.594;23.810;2023-07-16T00:21:15;95482.47;;;27.32;58.90
55466;BME280;41329;41.594;23.810;2023-07-16T00:23:40;95473.66;;;27.30;59.28
55466;BME280;41329;41.594;23.810;2023-07-16T00:26:05;95474.91;;;27.20;59.54
55466;BME280;41329;41.594;23.810;2023-07-16T00:28:31;95473.16;;;27.23;58.85
55466;BME280;41329;41.594;23.810;2023-07-16T00:30:56;95469.84;;;27.15;59.13
55466;BME280;41329;41.594;23.810;2023-07-16T00:33:22;95456.59;;;27.03;59.05
55466;BME280;41329;41.594;23.810;2023-07-16T00:35:48;95470.47;;;27.10;58.99
55466;BME280;41329;41.594;23.810;2023-07-16T00:38:14;95466.88;;;27.01;59.54
55466;BME280;41329;41.594;23.810;2023-07-16T00:40:39;95485.81;;;27.04;59.88
55466;BME280;41329;41.594;23.810;2023-07-16T00:43:05;95483.44;;;27.02;59.63
55466;BME280;41329;41.594;23.810;2023-07-16T00:45:30;95471.91;;;26.97;59.91
55466;BME280;41329;41.594;23.810;2023-07-16T00:47:56;95465.44;;;26.87;59.95
55466;BME280;41329;41.594;23.810;2023-07-16T00:50:22;95481.38;;;26.94;60.09
55466;BME280;41329;41.594;23.810;2023-07-16T00:52:47;95482.00;;;26.98;60.04
55466;BME280;41329;41.594;23.810;2023-07-16T00:55:13;95477.59;;;26.88;60.31
55466;BME280;41329;41.594;23.810;2023-07-16T00:57:38;95488.31;;;26.93;60.32
55466;BME280;41329;41.594;23.810;2023-07-16T01:00:05;95479.66;;;26.78;60.18
55466;BME280;41329;41.594;23.810;2023-07-16T01:02:31;95465.00;;;26.71;60.53
55466;BME280;41329;41.594;23.810;2023-07-16T01:04:57;95480.28;;;26.73;60.80
55466;BME280;41329;41.594;23.810;2023-07-16T01:07:24;95463.41;;;26.61;60.37
55466;BME280;41329;41.594;23.810;2023-07-16T01:09:51;95472.88;;;26.67;59.79
55466;BME280;41329;41.594;23.810;2023-07-16T01:12:20;95484.06;;;26.61;60.21
55466;BME280;41329;41.594;23.810;2023-07-16T01:14:47;95474.88;;;26.48;60.87
55466;BME280;41329;41.594;23.810;2023-07-16T01:17:13;95479.91;;;26.44;61.35
55466;BME280;41329;41.594;23.810;2023-07-16T01:19:38;95475.19;;;26.50;61.82
55466;BME280;41329;41.594;23.810;2023-07-16T01:27:46;95457.03;;;26.30;62.01
55466;BME280;41329;41.594;23.810;2023-07-16T01:30:15;95470.13;;;26.36;62.45
55466;BME280;41329;41.594;23.810;2023-07-16T01:32:41;95485.59;;;26.44;62.45
55466;BME280;41329;41.594;23.810;2023-07-16T01:35:08;95485.13;;;26.46;62.07
55466;BME280;41329;41.594;23.810;2023-07-16T01:37:34;95482.59;;;26.48;61.65
55466;BME280;41329;41.594;23.810;2023-07-16T01:39:59;95472.34;;;26.41;61.62
55466;BME280;41329;41.594;23.810;2023-07-16T01:42:25;95486.84;;;26.43;61.82
55466;BME280;41329;41.594;23.810;2023-07-16T01:44:50;95483.06;;;26.37;61.60
55466;BME280;41329;41.594;23.810;2023-07-16T01:47:24;95483.84;;;26.38;61.85
55466;BME280;41329;41.594;23.810;2023-07-16T01:49:56;95487.63;;;26.35;62.10
55466;BME280;41329;41.594;23.810;2023-07-16T01:52:21;95483.69;;;26.32;62.20
55466;BME280;41329;41.594;23.810;2023-07-16T01:54:47;95472.66;;;26.25;62.31
55466;BME280;41329;41.594;23.810;2023-07-16T01:57:13;95486.97;;;26.31;61.93
55466;BME280;41329;41.594;23.810;2023-07-16T01:59:38;95479.91;;;26.26;61.75
55466;BME280;41329;41.594;23.810;2023-07-16T02:02:04;95481.13;;;26.16;61.91
55466;BME280;41329;41.594;23.810;2023-07-16T02:04:29;95480.97;;;26.11;62.20
55466;BME280;41329;41.594;23.810;2023-07-16T02:06:55;95478.59;;;26.09;61.97
55466;BME280;41329;41.594;23.810;2023-07-16T02:09:21;95460.72;;;25.91;62.14
55466;BME280;41329;41.594;23.810;2023-07-16T02:11:46;95457.22;;;25.87;62.24
55466;BME280;41329;41.594;23.810;2023-07-16T02:14:12;95487.38;;;26.02;62.27
55466;BME280;41329;41.594;23.810;2023-07-16T02:16:39;95474.72;;;25.85;61.80
55466;BME280;41329;41.594;23.810;2023-07-16T02:19:04;95478.66;;;25.88;62.17
55466;BME280;41329;41.594;23.810;2023-07-16T02:21:30;95479.25;;;25.83;62.71
55466;BME280;41329;41.594;23.810;2023-07-16T02:23:55;95480.38;;;25.85;62.94
55466;BME280;41329;41.594;23.810;2023-07-16T02:26:20;95479.28;;;25.92;62.88
55466;BME280;41329;41.594;23.810;2023-07-16T02:28:46;95492.19;;;25.93;63.10
55466;BME280;41329;41.594;23.810;2023-07-16T02:31:11;95491.25;;;25.87;62.91
55466;BME280;41329;41.594;23.810;2023-07-16T02:33:37;95489.06;;;25.91;62.60
55466;BME280;41329;41.594;23.810;2023-07-16T02:36:02;95465.84;;;25.74;62.71
55466;BME280;41329;41.594;23.810;2023-07-16T02:38:28;95489.69;;;25.86;62.60
55466;BME280;41329;41.594;23.810;2023-07-16T02:40:53;95498.03;;;25.89;62.44
55466;BME280;41329;41.594;23.810;2023-07-16T02:43:18;95481.00;;;25.80;62.51
55466;BME280;41329;41.594;23.810;2023-07-16T02:45:44;95487.31;;;25.84;62.63
55466;BME280;41329;41.594;23.810;2023-07-16T02:48:09;95496.28;;;25.83;62.66
55466;BME280;41329;41.594;23.810;2023-07-16T02:50:35;95492.44;;;25.77;63.19
55466;BME280;41329;41.594;23.810;2023-07-16T02:53:03;95495.78;;;25.75;63.28
55466;BME280;41329;41.594;23.810;2023-07-16T02:55:28;95489.94;;;25.70;63.26
55466;BME280;41329;41.594;23.810;2023-07-16T02:57:53;95495.44;;;25.73;63.42
55466;BME280;41329;41.594;23.810;2023-07-16T03:00:19;95480.94;;;25.62;63.49
55466;BME280;41329;41.594;23.810;2023-07-16T03:02:44;95501.09;;;25.73;63.77
55466;BME280;41329;41.594;23.810;2023-07-16T03:05:10;95484.69;;;25.59;63.87
55466;BME280;41329;41.594;23.810;2023-07-16T03:07:35;95495.59;;;25.70;63.56
55466;BME280;41329;41.594;23.810;2023-07-16T03:10:00;95497.63;;;25.69;63.50
55466;BME280;41329;41.594;23.810;2023-07-16T03:12:26;95480.13;;;25.62;63.63
55466;BME280;41329;41.594;23.810;2023-07-16T03:14:51;95487.56;;;25.68;63.50
55466;BME280;41329;41.594;23.810;2023-07-16T03:17:20;95490.34;;;25.59;63.38
55466;BME280;41329;41.594;23.810;2023-07-16T03:19:46;95480.34;;;25.46;63.77
55466;BME280;41329;41.594;23.810;2023-07-16T03:22:11;95499.47;;;25.54;63.85
55466;BME280;41329;41.594;23.810;2023-07-16T03:24:36;95489.78;;;25.43;63.86
55466;BME280;41329;41.594;23.810;2023-07-16T03:27:02;95497.81;;;25.44;63.67
55466;BME280;41329;41.594;23.810;2023-07-16T03:29:27;95508.22;;;25.47;63.72
55466;BME280;41329;41.594;23.810;2023-07-16T03:31:53;95509.16;;;25.44;64.48
55466;BME280;41329;41.594;23.810;2023-07-16T03:34:18;95480.56;;;25.30;64.92
55466;BME280;41329;41.594;23.810;2023-07-16T03:36:43;95509.16;;;25.44;64.88
55466;BME280;41329;41.594;23.810;2023-07-16T03:39:09;95487.34;;;25.32;64.90
55466;BME280;41329;41.594;23.810;2023-07-16T03:41:34;95500.00;;;25.40;65.04
55466;BME280;41329;41.594;23.810;2023-07-16T03:44:00;95489.53;;;25.28;64.97
55466;BME280;41329;41.594;23.810;2023-07-16T03:46:25;95508.94;;;25.39;64.83
55466;BME280;41329;41.594;23.810;2023-07-16T03:48:53;95505.63;;;25.31;64.88
55466;BME280;41329;41.594;23.810;2023-07-16T03:51:18;95491.38;;;25.22;65.21
55466;BME280;41329;41.594;23.810;2023-07-16T03:53:44;95505.63;;;25.31;64.73
55466;BME280;41329;41.594;23.810;2023-07-16T03:56:09;95517.75;;;25.32;65.18
55466;BME280;41329;41.594;23.810;2023-07-16T03:58:35;95489.25;;;25.14;65.41
55466;BME280;41329;41.594;23.810;2023-07-16T04:01:00;95503.00;;;25.24;65.65
55466;BME280;41329;41.594;23.810;2023-07-16T04:03:25;95508.91;;;25.30;65.24
55466;BME280;41329;41.594;23.810;2023-07-16T04:05:51;95504.66;;;25.13;65.42
55466;BME280;41329;41.594;23.810;2023-07-16T04:08:16;95512.59;;;24.96;66.24
55466;BME280;41329;41.594;23.810;2023-07-16T04:10:42;95499.13;;;24.88;66.69
55466;BME280;41329;41.594;23.810;2023-07-16T04:13:07;95492.72;;;24.87;66.71
55466;BME280;41329;41.594;23.810;2023-07-16T04:15:32;95530.16;;;25.13;67.19
55466;BME280;41329;41.594;23.810;2023-07-16T04:17:58;95515.78;;;25.07;67.36
55466;BME280;41329;41.594;23.810;2023-07-16T04:20:23;95525.56;;;25.06;67.55
55466;BME280;41329;41.594;23.810;2023-07-16T04:22:49;95528.13;;;25.13;67.51
55466;BME280;41329;41.594;23.810;2023-07-16T04:25:14;95536.03;;;25.18;67.42
55466;BME280;41329;41.594;23.810;2023-07-16T04:27:40;95533.03;;;25.22;67.40
55466;BME280;41329;41.594;23.810;2023-07-16T04:30:07;95531.34;;;25.24;67.23
55466;BME280;41329;41.594;23.810;2023-07-16T04:32:32;95520.88;;;25.12;67.42
55466;BME280;41329;41.594;23.810;2023-07-16T04:34:58;95515.78;;;25.07;67.54
55466;BME280;41329;41.594;23.810;2023-07-16T04:37:23;95522.91;;;25.12;68.06
55466;BME280;41329;41.594;23.810;2023-07-16T04:39:49;95541.78;;;25.27;68.44
55466;BME280;41329;41.594;23.810;2023-07-16T04:42:15;95539.47;;;25.35;68.63
55466;BME280;41329;41.594;23.810;2023-07-16T04:44:42;95552.91;;;25.43;68.29
55466;BME280;41329;41.594;23.810;2023-07-16T04:47:07;95530.84;;;25.38;67.92
55466;BME280;41329;41.594;23.810;2023-07-16T04:49:34;95547.25;;;25.43;67.46
55466;BME280;41329;41.594;23.810;2023-07-16T04:52:00;95525.59;;;25.28;67.42
55466;BME280;41329;41.594;23.810;2023-07-16T04:54:26;95529.06;;;25.32;67.68
55466;BME280;41329;41.594;23.810;2023-07-16T04:56:51;95540.47;;;25.41;67.96
55466;BME280;41329;41.594;23.810;2023-07-16T04:59:16;95552.50;;;25.54;68.12
55466;BME280;41329;41.594;23.810;2023-07-16T05:01:42;95550.47;;;25.54;67.59
55466;BME280;41329;41.594;23.810;2023-07-16T05:04:07;95536.56;;;25.47;67.84
55466;BME280;41329;41.594;23.810;2023-07-16T05:06:33;95550.78;;;25.56;67.56
55466;BME280;41329;41.594;23.810;2023-07-16T05:08:59;95549.47;;;25.48;67.64
55466;BME280;41329;41.594;23.810;2023-07-16T05:11:24;95544.47;;;25.52;67.21
55466;BME280;41329;41.594;23.810;2023-07-16T05:13:50;95543.06;;;25.57;67.34
55466;BME280;41329;41.594;23.810;2023-07-16T05:16:16;95548.94;;;25.62;67.29
55466;BME280;41329;41.594;23.810;2023-07-16T05:18:41;95531.34;;;25.46;67.05
55466;BME280;41329;41.594;23.810;2023-07-16T05:21:07;95564.88;;;25.69;67.18
55466;BME280;41329;41.594;23.810;2023-07-16T05:23:32;95558.44;;;25.77;66.92
55466;BME280;41329;41.594;23.810;2023-07-16T05:25:57;95563.81;;;25.75;66.33
55466;BME280;41329;41.594;23.810;2023-07-16T05:28:24;95559.09;;;25.81;66.70
55466;BME280;41329;41.594;23.810;2023-07-16T05:31:00;95538.75;;;25.74;66.62
55466;BME280;41329;41.594;23.810;2023-07-16T05:33:26;95553.22;;;25.97;67.01
55466;BME280;41329;41.594;23.810;2023-07-16T05:35:51;95544.94;;;25.81;66.53
55466;BME280;41329;41.594;23.810;2023-07-16T05:38:17;95557.00;;;25.94;66.17
55466;BME280;41329;41.594;23.810;2023-07-16T05:40:42;95553.81;;;25.92;66.15
55466;BME280;41329;41.594;23.810;2023-07-16T05:43:07;95565.50;;;25.94;67.23
55466;BME280;41329;41.594;23.810;2023-07-16T05:45:33;95562.69;;;26.03;67.01
55466;BME280;41329;41.594;23.810;2023-07-16T05:47:59;95573.25;;;26.03;66.87
55466;BME280;41329;41.594;23.810;2023-07-16T05:50:24;95568.09;;;26.10;66.90
55466;BME280;41329;41.594;23.810;2023-07-16T05:52:49;95576.91;;;26.12;67.21
55466;BME280;41329;41.594;23.810;2023-07-16T05:55:15;95571.59;;;26.23;67.14
55466;BME280;41329;41.594;23.810;2023-07-16T05:57:40;95571.44;;;26.27;66.29
55466;BME280;41329;41.594;23.810;2023-07-16T06:00:06;95567.50;;;26.24;65.89
55466;BME280;41329;41.594;23.810;2023-07-16T06:02:32;95549.69;;;26.15;66.30
55466;BME280;41329;41.594;23.810;2023-07-16T06:04:57;95563.09;;;26.23;65.93
55466;BME280;41329;41.594;23.810;2023-07-16T06:07:23;95556.63;;;26.23;66.38
55466;BME280;41329;41.594;23.810;2023-07-16T06:09:48;95567.88;;;26.35;65.89
55466;BME280;41329;41.594;23.810;2023-07-16T06:12:14;95568.34;;;26.43;65.45
55466;BME280;41329;41.594;23.810;2023-07-16T06:14:39;95561.28;;;26.56;65.70
55466;BME280;41329;41.594;23.810;2023-07-16T06:17:05;95546.66;;;26.58;65.09
55466;BME280;41329;41.594;23.810;2023-07-16T06:19:30;95542.41;;;26.62;64.70
55466;BME280;41329;41.594;23.810;2023-07-16T06:21:56;95568.59;;;26.75;63.68
55466;BME280;41329;41.594;23.810;2023-07-16T06:24:21;95569.09;;;26.83;63.97
55466;BME280;41329;41.594;23.810;2023-07-16T06:26:47;95558.34;;;26.69;62.99
55466;BME280;41329;41.594;23.810;2023-07-16T06:29:13;95565.00;;;26.93;63.49
55466;BME280;41329;41.594;23.810;2023-07-16T06:31:38;95553.16;;;27.12;63.55
55466;BME280;41329;41.594;23.810;2023-07-16T06:34:04;95545.94;;;27.20;62.88
55466;BME280;41329;41.594;23.810;2023-07-16T06:36:29;95534.25;;;27.27;62.40
55466;BME280;41329;41.594;23.810;2023-07-16T06:38:55;95545.13;;;27.38;62.08
55466;BME280;41329;41.594;23.810;2023-07-16T06:41:20;95541.03;;;27.30;62.00
55466;BME280;41329;41.594;23.810;2023-07-16T06:43:46;95527.00;;;27.26;62.24
55466;BME280;41329;41.594;23.810;2023-07-16T06:46:11;95533.59;;;27.41;62.55
55466;BME280;41329;41.594;23.810;2023-07-16T06:48:37;95538.78;;;27.52;61.80
55466;BME280;41329;41.594;23.810;2023-07-16T06:51:02;95535.19;;;27.51;60.80
55466;BME280;41329;41.594;23.810;2023-07-16T06:53:28;95508.81;;;27.42;60.81
55466;BME280;41329;41.594;23.810;2023-07-16T06:55:53;95527.53;;;27.66;60.96
55466;BME280;41329;41.594;23.810;2023-07-16T06:58:18;95534.63;;;27.80;60.12
55466;BME280;41329;41.594;23.810;2023-07-16T07:00:44;95527.50;;;27.85;59.93
55466;BME280;41329;41.594;23.810;2023-07-16T07:03:09;95513.00;;;27.83;59.96
55466;BME280;41329;41.594;23.810;2023-07-16T07:05:35;95529.38;;;27.97;59.16
55466;BME280;41329;41.594;23.810;2023-07-16T07:08:02;95502.00;;;27.99;59.29
55466;BME280;41329;41.594;23.810;2023-07-16T07:10:27;95516.53;;;28.34;59.33
55466;BME280;41329;41.594;23.810;2023-07-16T07:12:52;95520.78;;;28.47;58.14
55466;BME280;41329;41.594;23.810;2023-07-16T07:15:18;95509.94;;;28.28;56.75
55466;BME280;41329;41.594;23.810;2023-07-16T07:17:43;95510.78;;;28.19;57.33
55466;BME280;41329;41.594;23.810;2023-07-16T07:20:12;95509.56;;;28.35;56.98
55466;BME280;41329;41.594;23.810;2023-07-16T07:22:38;95520.53;;;28.60;56.93
55466;BME280;41329;41.594;23.810;2023-07-16T07:25:03;95521.75;;;28.68;57.80
55466;BME280;41329;41.594;23.810;2023-07-16T07:27:29;95520.47;;;28.69;55.99
55466;BME280;41329;41.594;23.810;2023-07-16T07:29:54;95520.28;;;28.72;56.19
55466;BME280;41329;41.594;23.810;2023-07-16T07:32:21;95524.28;;;28.89;56.03
55466;BME280;41329;41.594;23.810;2023-07-16T07:34:47;95510.13;;;28.80;56.09
55466;BME280;41329;41.594;23.810;2023-07-16T07:37:12;95516.81;;;28.92;55.43
55466;BME280;41329;41.594;23.810;2023-07-16T07:39:37;95506.31;;;28.98;56.30
55466;BME280;41329;41.594;23.810;2023-07-16T07:42:03;95517.91;;;29.18;55.11
55466;BME280;41329;41.594;23.810;2023-07-16T07:44:29;95510.94;;;29.33;54.71
55466;BME280;41329;41.594;23.810;2023-07-16T07:46:54;95515.78;;;29.42;54.29
55466;BME280;41329;41.594;23.810;2023-07-16T07:49:20;95498.25;;;29.20;53.60
55466;BME280;41329;41.594;23.810;2023-07-16T07:51:45;95504.84;;;29.40;53.80
55466;BME280;41329;41.594;23.810;2023-07-16T07:54:12;95497.78;;;29.50;53.81
55466;BME280;41329;41.594;23.810;2023-07-16T07:56:37;95510.50;;;29.64;52.48
55466;BME280;41329;41.594;23.810;2023-07-16T07:59:04;95490.84;;;29.66;52.91
55466;BME280;41329;41.594;23.810;2023-07-16T08:01:29;95499.66;;;29.97;53.33
55466;BME280;41329;41.594;23.810;2023-07-16T08:03:55;95503.38;;;30.17;52.04
55466;BME280;41329;41.594;23.810;2023-07-16T08:06:20;95502.19;;;30.24;51.40
55466;BME280;41329;41.594;23.810;2023-07-16T08:08:45;95491.78;;;30.21;50.27
55466;BME280;41329;41.594;23.810;2023-07-16T08:11:11;95499.81;;;30.22;50.14
55466;BME280;41329;41.594;23.810;2023-07-16T08:13:36;95506.63;;;30.25;50.89
55466;BME280;41329;41.594;23.810;2023-07-16T08:16:01;95506.47;;;30.48;51.45
55466;BME280;41329;41.594;23.810;2023-07-16T08:18:27;95485.84;;;30.59;49.99
55466;BME280;41329;41.594;23.810;2023-07-16T08:20:52;95495.16;;;30.74;49.37
55466;BME280;41329;41.594;23.810;2023-07-16T08:23:18;95495.16;;;30.74;48.49
55466;BME280;41329;41.594;23.810;2023-07-16T08:25:43;95473.75;;;30.49;48.36
55466;BME280;41329;41.594;23.810;2023-07-16T08:28:09;95493.81;;;30.69;48.63
55466;BME280;41329;41.594;23.810;2023-07-16T08:30:35;95494.31;;;30.88;47.98
55466;BME280;41329;41.594;23.810;2023-07-16T08:33:00;95490.25;;;30.94;48.25
55466;BME280;41329;41.594;23.810;2023-07-16T08:35:26;95484.16;;;30.87;47.48
55466;BME280;41329;41.594;23.810;2023-07-16T08:37:51;95476.38;;;30.87;48.15
55466;BME280;41329;41.594;23.810;2023-07-16T08:40:17;95487.66;;;30.96;48.35
55466;BME280;41329;41.594;23.810;2023-07-16T08:42:45;95461.28;;;31.07;48.55
55466;BME280;41329;41.594;23.810;2023-07-16T08:45:11;95474.59;;;31.35;48.59
55466;BME280;41329;41.594;23.810;2023-07-16T08:47:37;95472.09;;;31.43;47.25
55466;BME280;41329;41.594;23.810;2023-07-16T08:50:03;95484.13;;;31.47;46.34
55466;BME280;41329;41.594;23.810;2023-07-16T08:52:29;95474.22;;;31.48;46.90
55466;BME280;41329;41.594;23.810;2023-07-16T08:54:56;95458.47;;;31.58;45.83
55466;BME280;41329;41.594;23.810;2023-07-16T08:57:21;95484.03;;;31.67;47.26
55466;BME280;41329;41.594;23.810;2023-07-16T08:59:48;95483.81;;;31.70;47.07
55466;BME280;41329;41.594;23.810;2023-07-16T09:02:15;95471.25;;;31.62;46.51
55466;BME280;41329;41.594;23.810;2023-07-16T09:04:42;95469.72;;;31.67;45.59
55466;BME280;41329;41.594;23.810;2023-07-16T09:07:07;95454.03;;;31.57;46.17
55466;BME280;41329;41.594;23.810;2023-07-16T09:09:33;95454.41;;;31.70;45.76
55466;BME280;41329;41.594;23.810;2023-07-16T09:11:58;95470.22;;;31.91;45.55
55466;BME280;41329;41.594;23.810;2023-07-16T09:14:23;95462.00;;;32.04;45.63
55466;BME280;41329;41.594;23.810;2023-07-16T09:16:52;95461.63;;;32.22;44.78
55466;BME280;41329;41.594;23.810;2023-07-16T09:19:18;95459.16;;;32.41;45.19
55466;BME280;41329;41.594;23.810;2023-07-16T09:21:48;95452.47;;;32.49;45.46
55466;BME280;41329;41.594;23.810;2023-07-16T09:24:14;95444.34;;;32.42;42.96
55466;BME280;41329;41.594;23.810;2023-07-16T09:26:48;95450.34;;;32.44;43.40
55466;BME280;41329;41.594;23.810;2023-07-16T09:29:13;95458.44;;;32.51;43.60
55466;BME280;41329;41.594;23.810;2023-07-16T09:31:52;95456.44;;;32.63;43.29
55466;BME280;41329;41.594;23.810;2023-07-16T09:34:17;95443.56;;;32.84;43.61
55466;BME280;41329;41.594;23.810;2023-07-16T09:36:42;95449.53;;;32.86;40.95
55466;BME280;41329;41.594;23.810;2023-07-16T09:39:08;95442.53;;;32.92;41.10
55466;BME280;41329;41.594;23.810;2023-07-16T09:41:34;95441.06;;;33.19;41.47
55466;BME280;41329;41.594;23.810;2023-07-16T09:44:00;95442.53;;;32.92;41.08
55466;BME280;41329;41.594;23.810;2023-07-16T09:46:26;95442.59;;;33.03;42.26
55466;BME280;41329;41.594;23.810;2023-07-16T09:48:51;95426.19;;;33.15;40.55
55466;BME280;41329;41.594;23.810;2023-07-16T09:51:17;95428.28;;;33.20;40.53
55466;BME280;41329;41.594;23.810;2023-07-16T09:53:44;95436.19;;;33.41;41.22
55466;BME280;41329;41.594;23.810;2023-07-16T09:56:12;95418.75;;;33.56;42.02
55466;BME280;41329;41.594;23.810;2023-07-16T09:58:38;95424.53;;;33.83;40.64
55466;BME280;41329;41.594;23.810;2023-07-16T10:01:04;95429.97;;;33.48;40.00
55466;BME280;41329;41.594;23.810;2023-07-16T10:03:31;95408.84;;;33.62;39.82
55466;BME280;41329;41.594;23.810;2023-07-16T10:06:05;95426.59;;;33.94;40.15
55466;BME280;41329;41.594;23.810;2023-07-16T10:08:34;95419.56;;;34.11;39.71
55466;BME280;41329;41.594;23.810;2023-07-16T10:11:02;95425.78;;;34.21;38.49
55466;BME280;41329;41.594;23.810;2023-07-16T10:13:28;95407.28;;;34.16;39.52
55466;BME280;41329;41.594;23.810;2023-07-16T10:15:57;95395.53;;;34.03;39.30
55466;BME280;41329;41.594;23.810;2023-07-16T10:18:30;95411.94;;;34.19;38.80
55466;BME280;41329;41.594;23.810;2023-07-16T10:21:08;95388.19;;;34.19;40.18
55466;BME280;41329;41.594;23.810;2023-07-16T10:23:42;95397.31;;;34.34;38.91
55466;BME280;41329;41.594;23.810;2023-07-16T10:26:10;95378.50;;;34.27;39.07
55466;BME280;41329;41.594;23.810;2023-07-16T10:28:36;95402.56;;;34.24;38.92
55466;BME280;41329;41.594;23.810;2023-07-16T10:31:02;95396.56;;;34.33;38.35
55466;BME280;41329;41.594;23.810;2023-07-16T10:33:28;95380.34;;;34.41;38.41
55466;BME280;41329;41.594;23.810;2023-07-16T10:35:56;95402.69;;;34.76;37.49
55466;BME280;41329;41.594;23.810;2023-07-16T10:38:23;95368.09;;;34.24;36.36
55466;BME280;41329;41.594;23.810;2023-07-16T10:40:49;95397.84;;;34.21;37.68
55466;BME280;41329;41.594;23.810;2023-07-16T10:43:15;95372.53;;;34.31;37.05
55466;BME280;41329;41.594;23.810;2023-07-16T10:45:40;95372.19;;;34.56;37.20
55466;BME280;41329;41.594;23.810;2023-07-16T10:48:07;95385.97;;;34.74;36.51
55466;BME280;41329;41.594;23.810;2023-07-16T10:50:33;95385.28;;;34.52;37.43
55466;BME280;41329;41.594;23.810;2023-07-16T10:52:59;95375.63;;;34.49;37.34
55466;BME280;41329;41.594;23.810;2023-07-16T10:55:26;95382.63;;;34.59;35.54
55466;BME280;41329;41.594;23.810;2023-07-16T10:57:52;95360.16;;;34.63;36.18
55466;BME280;41329;41.594;23.810;2023-07-16T11:00:19;95365.06;;;34.79;37.48
55466;BME280;41329;41.594;23.810;2023-07-16T11:02:45;95359.31;;;34.85;36.78
55466;BME280;41329;41.594;23.810;2023-07-16T11:05:13;95376.09;;;35.21;34.91
55466;BME280;41329;41.594;23.810;2023-07-16T11:07:57;95370.94;;;35.03;34.93
55466;BME280;41329;41.594;23.810;2023-07-16T11:10:24;95369.38;;;35.02;33.89
55466;BME280;41329;41.594;23.810;2023-07-16T11:12:51;95361.53;;;35.08;34.44
55466;BME280;41329;41.594;23.810;2023-07-16T11:15:17;95366.47;;;35.08;33.54
55466;BME280;41329;41.594;23.810;2023-07-16T11:17:48;95355.28;;;35.04;33.22
55466;BME280;41329;41.594;23.810;2023-07-16T11:20:14;95371.41;;;35.13;34.89
55466;BME280;41329;41.594;23.810;2023-07-16T11:22:39;95355.25;;;35.10;34.67
55466;BME280;41329;41.594;23.810;2023-07-16T11:25:14;95367.34;;;35.38;34.27
55466;BME280;41329;41.594;23.810;2023-07-16T11:27:41;95365.09;;;35.60;34.90
55466;BME280;41329;41.594;23.810;2023-07-16T11:30:07;95346.25;;;35.65;32.88
55466;BME280;41329;41.594;23.810;2023-07-16T11:32:46;95336.31;;;35.60;32.50
55466;BME280;41329;41.594;23.810;2023-07-16T11:35:18;95353.16;;;35.86;33.72
55466;BME280;41329;41.594;23.810;2023-07-16T11:37:45;95347.09;;;35.89;32.40
55466;BME280;41329;41.594;23.810;2023-07-16T11:40:18;95345.69;;;35.66;33.23
55466;BME280;41329;41.594;23.810;2023-07-16T11:42:44;95346.72;;;35.69;33.78
55466;BME280;41329;41.594;23.810;2023-07-16T11:45:18;95351.38;;;35.77;34.21
55466;BME280;41329;41.594;23.810;2023-07-16T11:47:44;95348.94;;;35.87;33.23
55466;BME280;41329;41.594;23.810;2023-07-16T11:50:09;95341.84;;;35.88;33.83
55466;BME280;41329;41.594;23.810;2023-07-16T11:52:35;95349.78;;;36.06;32.90
55466;BME280;41329;41.594;23.810;2023-07-16T11:55:00;95341.03;;;36.17;32.34
55466;BME280;41329;41.594;23.810;2023-07-16T11:57:26;95356.28;;;36.12;33.22
55466;BME280;41329;41.594;23.810;2023-07-16T11:59:52;95351.44;;;36.01;34.70
55466;BME280;41329;41.594;23.810;2023-07-16T12:02:17;95340.47;;;35.65;34.56
55466;BME280;41329;41.594;23.810;2023-07-16T12:04:43;95332.56;;;35.41;34.77
55466;BME280;41329;41.594;23.810;2023-07-16T12:07:09;95347.56;;;35.29;34.80
55466;BME280;41329;41.594;23.810;2023-07-16T12:09:34;95336.03;;;35.23;35.06
55466;BME280;41329;41.594;23.810;2023-07-16T12:12:00;95346.28;;;35.59;35.36
55466;BME280;41329;41.594;23.810;2023-07-16T12:14:26;95334.63;;;35.76;34.62
55466;BME280;41329;41.594;23.810;2023-07-16T12:16:51;95342.94;;;35.85;35.97
55466;BME280;41329;41.594;23.810;2023-07-16T12:19:17;95345.66;;;36.01;36.15
55466;BME280;41329;41.594;23.810;2023-07-16T12:21:42;95352.78;;;36.24;35.75
55466;BME280;41329;41.594;23.810;2023-07-16T12:24:08;95340.44;;;36.29;36.28
55466;BME280;41329;41.594;23.810;2023-07-16T12:26:33;95344.59;;;36.04;36.96
55466;BME280;41329;41.594;23.810;2023-07-16T12:29:00;95343.97;;;35.87;36.04
55466;BME280;41329;41.594;23.810;2023-07-16T12:31:28;95343.66;;;35.91;36.47
55466;BME280;41329;41.594;23.810;2023-07-16T12:33:53;95340.22;;;35.98;35.96
55466;BME280;41329;41.594;23.810;2023-07-16T12:36:18;95341.25;;;35.65;37.27
55466;BME280;41329;41.594;23.810;2023-07-16T12:38:44;95341.84;;;35.88;35.71
55466;BME280;41329;41.594;23.810;2023-07-16T12:41:10;95336.19;;;36.06;36.45
55466;BME280;41329;41.594;23.810;2023-07-16T12:43:35;95340.34;;;36.11;35.75
55466;BME280;41329;41.594;23.810;2023-07-16T12:46:01;95320.81;;;35.98;35.97
55466;BME280;41329;41.594;23.810;2023-07-16T12:48:30;95340.25;;;35.92;35.82
55466;BME280;41329;41.594;23.810;2023-07-16T12:50:56;95332.38;;;35.93;36.01